sensor_id;sensor_type;location;lat;lon;timestamp;P1;durP1;ratioP1;P2;durP2;ratioP2
64052;SDS011;50299;49.524;8.536;2024-02-21T00:02:20;5.25;;;4.50;;
64052;SDS011;50299;49.524;8.536;2024-02-21T00:04:47;6.65;;;5.00;;
64052;SDS011;50299;49.524;8.536;2024-02-21T00:07:13;6.35;;;5.03;;
64052;SDS011;50299;49.524;8.536;2024-02-21T00:09:40;7.63;;;3.85;;
64052;SDS011;50299;49.524;8.536;2024-02-21T00:12:06;6.80;;;4.60;;
64052;SDS011;50299;49.524;8.536;2024-02-21T00:14:33;8.77;;;4.00;;
64052;SDS011;50299;49.524;8.536;2024-02-21T00:16:59;5.00;;;3.90;;
64052;SDS011;50299;49.524;8.536;2024-02-21T00:19:26;5.93;;;3.53;;
64052;SDS011;50299;49.524;8.536;2024-02-21T00:21:52;4.80;;;4.22;;
64052;SDS011;50299;49.524;8.536;2024-02-21T00:24:19;6.55;;;3.95;;
64052;SDS011;50299;49.524;8.536;2024-02-21T00:26:45;7.20;;;4.60;;
64052;SDS011;50299;49.524;8.536;2024-02-21T00:29:12;4.82;;;4.35;;
64052;SDS011;50299;49.524;8.536;2024-02-21T00:31:39;7.22;;;3.55;;
64052;SDS011;50299;49.524;8.536;2024-02-21T00:34:05;5.70;;;4.57;;
64052;SDS011;50299;49.524;8.536;2024-02-21T00:36:31;8.82;;;4.18;;
64052;SDS011;50299;49.524;8.536;2024-02-21T00:38:58;6.32;;;3.28;;
64052;SDS011;50299;49.524;8.536;2024-02-21T00:41:24;9.25;;;4.70;;
64052;SDS011;50299;49.524;8.536;2024-02-21T00:43:51;6.10;;;4.28;;
64052;SDS011;50299;49.524;8.536;2024-02-21T00:46:19;8.43;;;3.97;;
64052;SDS011;50299;49.524;8.536;2024-02-21T00:48:45;6.03;;;4.28;;
64052;SDS011;50299;49.524;8.536;2024-02-21T00:51:12;5.72;;;4.43;;
64052;SDS011;50299;49.524;8.536;2024-02-21T00:53:38;5.35;;;4.00;;
64052;SDS011;50299;49.524;8.536;2024-02-21T00:56:05;5.40;;;3.95;;
64052;SDS011;50299;49.524;8.536;2024-02-21T00:58:32;6.32;;;3.38;;
64052;SDS011;50299;49.524;8.536;2024-02-21T01:00:58;5.85;;;4.65;;
64052;SDS011;50299;49.524;8.536;2024-02-21T01:03:26;5.18;;;4.05;;
64052;SDS011;50299;49.524;8.536;2024-02-21T01:05:52;8.00;;;3.92;;
64052;SDS011;50299;49.524;8.536;2024-02-21T01:08:19;6.28;;;2.85;;
64052;SDS011;50299;49.524;8.536;2024-02-21T01:10:45;6.97;;;3.75;;
64052;SDS011;50299;49.524;8.536;2024-02-21T01:13:12;5.38;;;4.00;;
64052;SDS011;50299;49.524;8.536;2024-02-21T01:15:38;5.60;;;3.97;;
64052;SDS011;50299;49.524;8.536;2024-02-21T01:18:05;6.05;;;3.67;;
64052;SDS011;50299;49.524;8.536;2024-02-21T01:20:32;6.32;;;3.10;;
64052;SDS011;50299;49.524;8.536;2024-02-21T01:22:59;6.78;;;3.58;;
64052;SDS011;50299;49.524;8.536;2024-02-21T01:25:25;6.30;;;4.22;;
64052;SDS011;50299;49.524;8.536;2024-02-21T01:27:52;3.47;;;2.63;;
64052;SDS011;50299;49.524;8.536;2024-02-21T01:30:18;4.30;;;3.90;;
64052;SDS011;50299;49.524;8.536;2024-02-21T01:32:44;4.57;;;3.65;;
64052;SDS011;50299;49.524;8.536;2024-02-21T01:35:11;8.18;;;4.00;;
64052;SDS011;50299;49.524;8.536;2024-02-21T01:37:38;5.65;;;2.55;;
64052;SDS011;50299;49.524;8.536;2024-02-21T01:40:05;4.03;;;3.63;;
64052;SDS011;50299;49.524;8.536;2024-02-21T01:42:32;6.65;;;3.20;;
64052;SDS011;50299;49.524;8.536;2024-02-21T01:44:58;4.40;;;3.75;;
64052;SDS011;50299;49.524;8.536;2024-02-21T01:47:25;4.10;;;3.55;;
64052;SDS011;50299;49.524;8.536;2024-02-21T01:49:51;6.00;;;4.47;;
64052;SDS011;50299;49.524;8.536;2024-02-21T01:52:18;3.92;;;3.45;;
64052;SDS011;50299;49.524;8.536;2024-02-21T01:54:44;9.43;;;3.95;;
64052;SDS011;50299;49.524;8.536;2024-02-21T01:57:13;4.53;;;4.05;;
64052;SDS011;50299;49.524;8.536;2024-02-21T01:59:39;9.30;;;4.20;;
64052;SDS011;50299;49.524;8.536;2024-02-21T02:02:06;5.60;;;3.78;;
64052;SDS011;50299;49.524;8.536;2024-02-21T02:04:32;5.18;;;4.05;;
64052;SDS011;50299;49.524;8.536;2024-02-21T02:07:02;6.05;;;4.05;;
64052;SDS011;50299;49.524;8.536;2024-02-21T02:09:31;8.27;;;4.38;;
64052;SDS011;50299;49.524;8.536;2024-02-21T02:11:57;6.72;;;3.80;;
64052;SDS011;50299;49.524;8.536;2024-02-21T02:14:25;4.72;;;3.63;;
64052;SDS011;50299;49.524;8.536;2024-02-21T02:16:54;6.47;;;4.13;;
64052;SDS011;50299;49.524;8.536;2024-02-21T02:19:21;7.22;;;3.83;;
64052;SDS011;50299;49.524;8.536;2024-02-21T02:21:52;6.63;;;4.07;;
64052;SDS011;50299;49.524;8.536;2024-02-21T02:24:23;3.15;;;2.85;;
64052;SDS011;50299;49.524;8.536;2024-02-21T02:26:52;5.88;;;3.28;;
64052;SDS011;50299;49.524;8.536;2024-02-21T02:29:18;4.07;;;3.33;;
64052;SDS011;50299;49.524;8.536;2024-02-21T02:31:45;3.35;;;2.50;;
64052;SDS011;50299;49.524;8.536;2024-02-21T02:34:12;6.75;;;3.42;;
64052;SDS011;50299;49.524;8.536;2024-02-21T02:36:38;3.65;;;3.17;;
64052;SDS011;50299;49.524;8.536;2024-02-21T02:39:05;3.90;;;3.58;;
64052;SDS011;50299;49.524;8.536;2024-02-21T02:41:31;4.90;;;3.42;;
64052;SDS011;50299;49.524;8.536;2024-02-21T02:44:01;5.20;;;3.47;;
64052;SDS011;50299;49.524;8.536;2024-02-21T02:46:27;3.80;;;3.30;;
64052;SDS011;50299;49.524;8.536;2024-02-21T02:48:54;4.25;;;3.40;;
64052;SDS011;50299;49.524;8.536;2024-02-21T02:51:21;5.00;;;3.42;;
64052;SDS011;50299;49.524;8.536;2024-02-21T02:53:47;3.47;;;2.90;;
64052;SDS011;50299;49.524;8.536;2024-02-21T02:56:14;4.55;;;3.33;;
64052;SDS011;50299;49.524;8.536;2024-02-21T02:58:42;5.95;;;3.35;;
64052;SDS011;50299;49.524;8.536;2024-02-21T03:01:10;4.53;;;2.90;;
64052;SDS011;50299;49.524;8.536;2024-02-21T03:03:36;6.03;;;3.83;;
64052;SDS011;50299;49.524;8.536;2024-02-21T03:06:03;7.93;;;3.83;;
64052;SDS011;50299;49.524;8.536;2024-02-21T03:08:32;3.88;;;3.40;;
64052;SDS011;50299;49.524;8.536;2024-02-21T03:10:59;3.95;;;2.83;;
64052;SDS011;50299;49.524;8.536;2024-02-21T03:13:26;3.88;;;3.00;;
64052;SDS011;50299;49.524;8.536;2024-02-21T03:15:52;5.55;;;3.42;;
64052;SDS011;50299;49.524;8.536;2024-02-21T03:18:19;4.70;;;2.88;;
64052;SDS011;50299;49.524;8.536;2024-02-21T03:20:45;5.72;;;3.05;;
64052;SDS011;50299;49.524;8.536;2024-02-21T03:23:11;4.22;;;3.60;;
64052;SDS011;50299;49.524;8.536;2024-02-21T03:25:41;3.20;;;2.60;;
64052;SDS011;50299;49.524;8.536;2024-02-21T03:28:07;6.93;;;3.17;;
64052;SDS011;50299;49.524;8.536;2024-02-21T03:30:34;3.90;;;3.50;;
64052;SDS011;50299;49.524;8.536;2024-02-21T03:33:00;5.60;;;3.55;;
64052;SDS011;50299;49.524;8.536;2024-02-21T03:35:27;3.38;;;3.08;;
64052;SDS011;50299;49.524;8.536;2024-02-21T03:37:57;3.70;;;3.13;;
64052;SDS011;50299;49.524;8.536;2024-02-21T03:40:24;4.65;;;3.80;;
64052;SDS011;50299;49.524;8.536;2024-02-21T03:42:50;4.53;;;3.35;;
64052;SDS011;50299;49.524;8.536;2024-02-21T03:45:17;9.90;;;3.60;;
64052;SDS011;50299;49.524;8.536;2024-02-21T03:47:43;6.15;;;4.13;;
64052;SDS011;50299;49.524;8.536;2024-02-21T03:50:10;3.95;;;3.05;;
64052;SDS011;50299;49.524;8.536;2024-02-21T03:52:36;5.60;;;4.13;;
64052;SDS011;50299;49.524;8.536;2024-02-21T03:55:03;8.27;;;3.03;;
64052;SDS011;50299;49.524;8.536;2024-02-21T03:57:30;3.97;;;3.58;;
64052;SDS011;50299;49.524;8.536;2024-02-21T03:59:56;4.80;;;2.97;;
64052;SDS011;50299;49.524;8.536;2024-02-21T04:02:23;4.63;;;2.78;;
64052;SDS011;50299;49.524;8.536;2024-02-21T04:04:49;3.45;;;3.20;;
64052;SDS011;50299;49.524;8.536;2024-02-21T04:07:16;4.07;;;3.67;;
64052;SDS011;50299;49.524;8.536;2024-02-21T04:09:43;4.05;;;3.65;;
64052;SDS011;50299;49.524;8.536;2024-02-21T04:12:09;7.30;;;3.85;;
64052;SDS011;50299;49.524;8.536;2024-02-21T04:14:39;3.95;;;2.72;;
64052;SDS011;50299;49.524;8.536;2024-02-21T04:17:08;9.27;;;3.95;;
64052;SDS011;50299;49.524;8.536;2024-02-21T04:19:35;3.80;;;2.53;;
64052;SDS011;50299;49.524;8.536;2024-02-21T04:22:01;4.80;;;2.75;;
64052;SDS011;50299;49.524;8.536;2024-02-21T04:24:28;4.38;;;3.08;;
64052;SDS011;50299;49.524;8.536;2024-02-21T04:26:54;3.72;;;3.42;;
64052;SDS011;50299;49.524;8.536;2024-02-21T04:29:21;6.75;;;3.80;;
64052;SDS011;50299;49.524;8.536;2024-02-21T04:31:47;4.03;;;3.45;;
64052;SDS011;50299;49.524;8.536;2024-02-21T04:34:14;3.85;;;3.10;;
64052;SDS011;50299;49.524;8.536;2024-02-21T04:36:40;7.53;;;3.40;;
64052;SDS011;50299;49.524;8.536;2024-02-21T04:39:07;4.00;;;3.60;;
64052;SDS011;50299;49.524;8.536;2024-02-21T04:41:33;5.00;;;4.10;;
64052;SDS011;50299;49.524;8.536;2024-02-21T04:44:00;6.03;;;4.00;;
64052;SDS011;50299;49.524;8.536;2024-02-21T04:46:26;5.80;;;4.00;;
64052;SDS011;50299;49.524;8.536;2024-02-21T04:48:53;7.07;;;3.97;;
64052;SDS011;50299;49.524;8.536;2024-02-21T04:51:19;4.20;;;3.67;;
64052;SDS011;50299;49.524;8.536;2024-02-21T04:53:46;4.13;;;3.50;;
64052;SDS011;50299;49.524;8.536;2024-02-21T04:56:12;4.78;;;3.80;;
64052;SDS011;50299;49.524;8.536;2024-02-21T04:58:39;5.85;;;4.38;;
64052;SDS011;50299;49.524;8.536;2024-02-21T05:01:06;3.42;;;3.13;;
64052;SDS011;50299;49.524;8.536;2024-02-21T05:03:34;4.68;;;3.65;;
64052;SDS011;50299;49.524;8.536;2024-02-21T05:06:01;3.95;;;3.28;;
64052;SDS011;50299;49.524;8.536;2024-02-21T05:08:27;5.78;;;3.85;;
64052;SDS011;50299;49.524;8.536;2024-02-21T05:10:53;5.88;;;3.78;;
64052;SDS011;50299;49.524;8.536;2024-02-21T05:13:21;4.85;;;3.13;;
64052;SDS011;50299;49.524;8.536;2024-02-21T05:15:47;6.25;;;3.20;;
64052;SDS011;50299;49.524;8.536;2024-02-21T05:18:14;7.05;;;3.25;;
64052;SDS011;50299;49.524;8.536;2024-02-21T05:20:41;3.90;;;3.00;;
64052;SDS011;50299;49.524;8.536;2024-02-21T05:23:07;4.88;;;3.25;;
64052;SDS011;50299;49.524;8.536;2024-02-21T05:25:34;5.07;;;3.53;;
64052;SDS011;50299;49.524;8.536;2024-02-21T05:28:00;8.68;;;3.65;;
64052;SDS011;50299;49.524;8.536;2024-02-21T05:30:31;6.05;;;3.30;;
64052;SDS011;50299;49.524;8.536;2024-02-21T05:32:57;4.88;;;3.88;;
64052;SDS011;50299;49.524;8.536;2024-02-21T05:35:28;6.15;;;2.85;;
64052;SDS011;50299;49.524;8.536;2024-02-21T05:37:55;9.02;;;3.80;;
64052;SDS011;50299;49.524;8.536;2024-02-21T05:40:22;5.85;;;4.13;;
64052;SDS011;50299;49.524;8.536;2024-02-21T05:42:49;7.07;;;3.65;;
64052;SDS011;50299;49.524;8.536;2024-02-21T05:45:18;4.75;;;3.30;;
64052;SDS011;50299;49.524;8.536;2024-02-21T05:47:44;7.05;;;3.65;;
64052;SDS011;50299;49.524;8.536;2024-02-21T05:50:11;3.38;;;3.03;;
64052;SDS011;50299;49.524;8.536;2024-02-21T05:52:40;7.63;;;2.45;;
64052;SDS011;50299;49.524;8.536;2024-02-21T05:55:07;6.78;;;4.28;;
64052;SDS011;50299;49.524;8.536;2024-02-21T05:57:35;5.13;;;3.08;;
64052;SDS011;50299;49.524;8.536;2024-02-21T06:00:05;8.25;;;2.97;;
64052;SDS011;50299;49.524;8.536;2024-02-21T06:02:32;6.15;;;3.05;;
64052;SDS011;50299;49.524;8.536;2024-02-21T06:05:01;4.30;;;3.90;;
64052;SDS011;50299;49.524;8.536;2024-02-21T06:07:28;4.18;;;3.70;;
64052;SDS011;50299;49.524;8.536;2024-02-21T06:09:54;4.63;;;3.47;;
64052;SDS011;50299;49.524;8.536;2024-02-21T06:12:21;5.78;;;2.78;;
64052;SDS011;50299;49.524;8.536;2024-02-21T06:14:47;3.70;;;2.92;;
64052;SDS011;50299;49.524;8.536;2024-02-21T06:17:14;6.22;;;4.00;;
64052;SDS011;50299;49.524;8.536;2024-02-21T06:19:41;6.25;;;4.38;;
64052;SDS011;50299;49.524;8.536;2024-02-21T06:22:09;6.35;;;3.35;;
64052;SDS011;50299;49.524;8.536;2024-02-21T06:24:35;3.80;;;3.50;;
64052;SDS011;50299;49.524;8.536;2024-02-21T06:27:05;4.65;;;3.35;;
64052;SDS011;50299;49.524;8.536;2024-02-21T06:29:36;3.85;;;3.53;;
64052;SDS011;50299;49.524;8.536;2024-02-21T06:32:02;3.92;;;3.35;;
64052;SDS011;50299;49.524;8.536;2024-02-21T06:34:29;4.22;;;3.60;;
64052;SDS011;50299;49.524;8.536;2024-02-21T06:36:59;7.15;;;3.90;;
64052;SDS011;50299;49.524;8.536;2024-02-21T06:39:26;3.97;;;3.58;;
64052;SDS011;50299;49.524;8.536;2024-02-21T06:41:54;6.47;;;4.07;;
64052;SDS011;50299;49.524;8.536;2024-02-21T06:44:26;8.10;;;4.05;;
64052;SDS011;50299;49.524;8.536;2024-02-21T06:46:52;7.18;;;3.78;;
64052;SDS011;50299;49.524;8.536;2024-02-21T06:49:19;3.38;;;3.08;;
64052;SDS011;50299;49.524;8.536;2024-02-21T06:51:45;6.60;;;3.75;;
64052;SDS011;50299;49.524;8.536;2024-02-21T06:54:12;5.70;;;4.28;;
64052;SDS011;50299;49.524;8.536;2024-02-21T06:56:40;3.28;;;3.08;;
64052;SDS011;50299;49.524;8.536;2024-02-21T06:59:07;5.53;;;3.88;;
64052;SDS011;50299;49.524;8.536;2024-02-21T07:01:33;4.68;;;3.33;;
64052;SDS011;50299;49.524;8.536;2024-02-21T07:04:00;6.50;;;3.72;;
64052;SDS011;50299;49.524;8.536;2024-02-21T07:06:26;3.63;;;3.03;;
64052;SDS011;50299;49.524;8.536;2024-02-21T07:08:53;8.73;;;3.97;;
64052;SDS011;50299;49.524;8.536;2024-02-21T07:11:19;5.32;;;3.85;;
64052;SDS011;50299;49.524;8.536;2024-02-21T07:13:46;4.78;;;4.28;;
64052;SDS011;50299;49.524;8.536;2024-02-21T07:16:13;3.20;;;2.92;;
64052;SDS011;50299;49.524;8.536;2024-02-21T07:18:39;4.15;;;3.78;;
64052;SDS011;50299;49.524;8.536;2024-02-21T07:21:06;4.30;;;3.85;;
64052;SDS011;50299;49.524;8.536;2024-02-21T07:23:32;5.88;;;4.32;;
64052;SDS011;50299;49.524;8.536;2024-02-21T07:25:59;7.07;;;2.88;;
64052;SDS011;50299;49.524;8.536;2024-02-21T07:28:26;8.48;;;3.58;;
64052;SDS011;50299;49.524;8.536;2024-02-21T07:30:52;9.05;;;4.28;;
64052;SDS011;50299;49.524;8.536;2024-02-21T07:33:19;4.82;;;3.78;;
64052;SDS011;50299;49.524;8.536;2024-02-21T07:35:45;7.50;;;4.75;;
64052;SDS011;50299;49.524;8.536;2024-02-21T07:38:12;5.55;;;3.75;;
64052;SDS011;50299;49.524;8.536;2024-02-21T07:40:39;6.13;;;3.30;;
64052;SDS011;50299;49.524;8.536;2024-02-21T07:43:05;6.63;;;4.13;;
64052;SDS011;50299;49.524;8.536;2024-02-21T07:45:32;8.80;;;3.38;;
64052;SDS011;50299;49.524;8.536;2024-02-21T07:47:58;5.40;;;4.07;;
64052;SDS011;50299;49.524;8.536;2024-02-21T07:50:25;5.63;;;4.03;;
64052;SDS011;50299;49.524;8.536;2024-02-21T07:52:51;9.02;;;3.80;;
64052;SDS011;50299;49.524;8.536;2024-02-21T07:55:21;5.82;;;3.47;;
64052;SDS011;50299;49.524;8.536;2024-02-21T07:57:48;6.38;;;3.00;;
64052;SDS011;50299;49.524;8.536;2024-02-21T08:00:14;5.82;;;4.45;;
64052;SDS011;50299;49.524;8.536;2024-02-21T08:02:46;7.22;;;3.83;;
64052;SDS011;50299;49.524;8.536;2024-02-21T08:05:12;6.07;;;4.30;;
64052;SDS011;50299;49.524;8.536;2024-02-21T08:07:39;6.78;;;3.80;;
64052;SDS011;50299;49.524;8.536;2024-02-21T08:10:06;5.03;;;4.18;;
64052;SDS011;50299;49.524;8.536;2024-02-21T08:12:35;4.10;;;3.72;;
64052;SDS011;50299;49.524;8.536;2024-02-21T08:15:02;4.55;;;3.75;;
64052;SDS011;50299;49.524;8.536;2024-02-21T08:17:34;8.38;;;4.43;;
64052;SDS011;50299;49.524;8.536;2024-02-21T08:20:00;8.02;;;4.38;;
64052;SDS011;50299;49.524;8.536;2024-02-21T08:22:27;7.55;;;4.40;;
64052;SDS011;50299;49.524;8.536;2024-02-21T08:24:53;4.30;;;3.90;;
64052;SDS011;50299;49.524;8.536;2024-02-21T08:27:20;6.22;;;3.47;;
64052;SDS011;50299;49.524;8.536;2024-02-21T08:29:46;5.35;;;3.75;;
64052;SDS011;50299;49.524;8.536;2024-02-21T08:32:13;5.25;;;4.10;;
64052;SDS011;50299;49.524;8.536;2024-02-21T08:34:39;4.15;;;3.75;;
64052;SDS011;50299;49.524;8.536;2024-02-21T08:37:06;6.63;;;3.80;;
64052;SDS011;50299;49.524;8.536;2024-02-21T08:39:32;5.78;;;3.83;;
64052;SDS011;50299;49.524;8.536;2024-02-21T08:41:59;4.88;;;3.92;;
64052;SDS011;50299;49.524;8.536;2024-02-21T08:44:27;9.20;;;4.20;;
64052;SDS011;50299;49.524;8.536;2024-02-21T08:46:54;4.40;;;4.00;;
64052;SDS011;50299;49.524;8.536;2024-02-21T08:49:22;5.28;;;4.05;;
64052;SDS011;50299;49.524;8.536;2024-02-21T08:51:49;5.75;;;4.25;;
64052;SDS011;50299;49.524;8.536;2024-02-21T08:54:15;6.43;;;4.00;;
64052;SDS011;50299;49.524;8.536;2024-02-21T08:56:43;4.68;;;3.90;;
64052;SDS011;50299;49.524;8.536;2024-02-21T08:59:09;8.35;;;4.22;;
64052;SDS011;50299;49.524;8.536;2024-02-21T09:01:36;4.65;;;3.40;;
64052;SDS011;50299;49.524;8.536;2024-02-21T09:04:04;4.45;;;4.05;;
64052;SDS011;50299;49.524;8.536;2024-02-21T09:06:34;4.88;;;4.20;;
64052;SDS011;50299;49.524;8.536;2024-02-21T09:09:03;3.97;;;3.58;;
64052;SDS011;50299;49.524;8.536;2024-02-21T09:11:30;14.07;;;4.95;;
64052;SDS011;50299;49.524;8.536;2024-02-21T09:13:56;8.50;;;3.80;;
64052;SDS011;50299;49.524;8.536;2024-02-21T09:16:23;8.10;;;3.72;;
64052;SDS011;50299;49.524;8.536;2024-02-21T09:18:50;4.85;;;2.83;;
64052;SDS011;50299;49.524;8.536;2024-02-21T09:21:16;15.75;;;3.75;;
64052;SDS011;50299;49.524;8.536;2024-02-21T09:23:43;4.95;;;2.58;;
64052;SDS011;50299;49.524;8.536;2024-02-21T09:26:09;7.53;;;3.58;;
64052;SDS011;50299;49.524;8.536;2024-02-21T09:28:40;3.08;;;2.28;;
64052;SDS011;50299;49.524;8.536;2024-02-21T09:31:06;4.55;;;2.92;;
64052;SDS011;50299;49.524;8.536;2024-02-21T09:33:33;9.93;;;3.15;;
64052;SDS011;50299;49.524;8.536;2024-02-21T09:35:59;4.35;;;2.80;;
64052;SDS011;50299;49.524;8.536;2024-02-21T09:38:26;5.57;;;2.90;;
64052;SDS011;50299;49.524;8.536;2024-02-21T09:40:59;4.20;;;3.40;;
64052;SDS011;50299;49.524;8.536;2024-02-21T09:43:30;2.47;;;2.00;;
64052;SDS011;50299;49.524;8.536;2024-02-21T09:45:57;6.07;;;3.17;;
64052;SDS011;50299;49.524;8.536;2024-02-21T09:51:15;4.45;;;2.72;;
64052;SDS011;50299;49.524;8.536;2024-02-21T09:53:43;3.85;;;2.65;;
64052;SDS011;50299;49.524;8.536;2024-02-21T09:56:27;5.25;;;3.38;;
64052;SDS011;50299;49.524;8.536;2024-02-21T09:58:54;7.32;;;3.35;;
64052;SDS011;50299;49.524;8.536;2024-02-21T10:01:21;7.32;;;3.67;;
64052;SDS011;50299;49.524;8.536;2024-02-21T10:03:59;3.28;;;3.08;;
64052;SDS011;50299;49.524;8.536;2024-02-21T10:06:26;3.88;;;3.47;;
64052;SDS011;50299;49.524;8.536;2024-02-21T10:08:53;3.45;;;2.80;;
64052;SDS011;50299;49.524;8.536;2024-02-21T10:11:23;3.95;;;3.53;;
64052;SDS011;50299;49.524;8.536;2024-02-21T10:13:51;3.38;;;3.08;;
64052;SDS011;50299;49.524;8.536;2024-02-21T10:16:17;4.28;;;2.13;;
64052;SDS011;50299;49.524;8.536;2024-02-21T10:18:44;4.82;;;3.13;;
64052;SDS011;50299;49.524;8.536;2024-02-21T10:21:11;2.90;;;1.95;;
64052;SDS011;50299;49.524;8.536;2024-02-21T10:23:41;2.80;;;2.45;;
64052;SDS011;50299;49.524;8.536;2024-02-21T10:26:08;7.93;;;2.80;;
64052;SDS011;50299;49.524;8.536;2024-02-21T10:28:36;5.22;;;2.25;;
64052;SDS011;50299;49.524;8.536;2024-02-21T10:31:08;4.53;;;2.80;;
64052;SDS011;50299;49.524;8.536;2024-02-21T10:33:36;4.80;;;2.25;;
64052;SDS011;50299;49.524;8.536;2024-02-21T10:36:07;1.98;;;1.77;;
64052;SDS011;50299;49.524;8.536;2024-02-21T10:38:37;5.25;;;2.13;;
64052;SDS011;50299;49.524;8.536;2024-02-21T10:41:05;5.60;;;2.35;;
64052;SDS011;50299;49.524;8.536;2024-02-21T10:43:33;4.35;;;2.83;;
64052;SDS011;50299;49.524;8.536;2024-02-21T10:46:07;2.15;;;1.77;;
64052;SDS011;50299;49.524;8.536;2024-02-21T10:48:42;4.32;;;2.70;;
64052;SDS011;50299;49.524;8.536;2024-02-21T10:51:16;4.93;;;2.28;;
64052;SDS011;50299;49.524;8.536;2024-02-21T10:56:45;2.65;;;2.42;;
64052;SDS011;50299;49.524;8.536;2024-02-21T10:59:12;3.58;;;2.00;;
64052;SDS011;50299;49.524;8.536;2024-02-21T11:01:39;1.77;;;1.67;;
64052;SDS011;50299;49.524;8.536;2024-02-21T11:04:06;3.22;;;2.50;;
64052;SDS011;50299;49.524;8.536;2024-02-21T11:06:35;2.45;;;2.25;;
64052;SDS011;50299;49.524;8.536;2024-02-21T11:09:07;4.63;;;2.83;;
64052;SDS011;50299;49.524;8.536;2024-02-21T11:11:35;10.18;;;2.80;;
64052;SDS011;50299;49.524;8.536;2024-02-21T11:14:19;3.30;;;2.40;;
64052;SDS011;50299;49.524;8.536;2024-02-21T11:16:46;3.90;;;2.42;;
64052;SDS011;50299;49.524;8.536;2024-02-21T11:21:48;5.18;;;2.53;;
64052;SDS011;50299;49.524;8.536;2024-02-21T11:24:30;4.20;;;2.33;;
64052;SDS011;50299;49.524;8.536;2024-02-21T11:27:11;4.28;;;2.03;;
64052;SDS011;50299;49.524;8.536;2024-02-21T11:29:48;1.98;;;1.33;;
64052;SDS011;50299;49.524;8.536;2024-02-21T11:32:19;4.47;;;2.20;;
64052;SDS011;50299;49.524;8.536;2024-02-21T11:35:00;4.07;;;1.77;;
64052;SDS011;50299;49.524;8.536;2024-02-21T11:37:34;3.00;;;2.05;;
64052;SDS011;50299;49.524;8.536;2024-02-21T11:40:04;2.88;;;2.47;;
64052;SDS011;50299;49.524;8.536;2024-02-21T11:45:00;1.90;;;1.80;;
64052;SDS011;50299;49.524;8.536;2024-02-21T11:47:28;5.20;;;2.65;;
64052;SDS011;50299;49.524;8.536;2024-02-21T11:49:55;2.10;;;1.90;;
64052;SDS011;50299;49.524;8.536;2024-02-21T11:52:22;5.05;;;2.28;;
64052;SDS011;50299;49.524;8.536;2024-02-21T11:54:54;2.15;;;2.00;;
64052;SDS011;50299;49.524;8.536;2024-02-21T11:57:23;2.63;;;2.40;;
64052;SDS011;50299;49.524;8.536;2024-02-21T11:59:50;7.10;;;1.70;;
64052;SDS011;50299;49.524;8.536;2024-02-21T12:02:23;1.88;;;1.77;;
64052;SDS011;50299;49.524;8.536;2024-02-21T12:04:50;2.30;;;1.75;;
64052;SDS011;50299;49.524;8.536;2024-02-21T12:07:18;2.70;;;1.60;;
64052;SDS011;50299;49.524;8.536;2024-02-21T12:09:44;2.28;;;1.88;;
64052;SDS011;50299;49.524;8.536;2024-02-21T12:12:11;4.03;;;1.73;;
64052;SDS011;50299;49.524;8.536;2024-02-21T12:14:37;2.83;;;1.90;;
64052;SDS011;50299;49.524;8.536;2024-02-21T12:17:04;2.35;;;2.15;;
64052;SDS011;50299;49.524;8.536;2024-02-21T12:19:31;4.50;;;1.88;;
64052;SDS011;50299;49.524;8.536;2024-02-21T12:21:59;4.72;;;1.85;;
64052;SDS011;50299;49.524;8.536;2024-02-21T12:24:26;2.35;;;2.15;;
64052;SDS011;50299;49.524;8.536;2024-02-21T12:26:53;3.35;;;2.22;;
64052;SDS011;50299;49.524;8.536;2024-02-21T12:29:20;4.75;;;1.95;;
64052;SDS011;50299;49.524;8.536;2024-02-21T12:31:47;3.72;;;2.33;;
64052;SDS011;50299;49.524;8.536;2024-02-21T12:34:15;5.25;;;2.60;;
64052;SDS011;50299;49.524;8.536;2024-02-21T12:36:44;3.13;;;2.33;;
64052;SDS011;50299;49.524;8.536;2024-02-21T12:39:13;2.92;;;1.67;;
64052;SDS011;50299;49.524;8.536;2024-02-21T12:41:40;2.42;;;2.22;;
64052;SDS011;50299;49.524;8.536;2024-02-21T12:44:09;3.35;;;1.83;;
64052;SDS011;50299;49.524;8.536;2024-02-21T12:46:37;2.08;;;1.92;;
64052;SDS011;50299;49.524;8.536;2024-02-21T12:49:04;2.28;;;2.08;;
64052;SDS011;50299;49.524;8.536;2024-02-21T12:51:31;6.03;;;2.80;;
64052;SDS011;50299;49.524;8.536;2024-02-21T12:53:58;1.33;;;1.20;;
64052;SDS011;50299;49.524;8.536;2024-02-21T12:56:25;4.00;;;2.13;;
64052;SDS011;50299;49.524;8.536;2024-02-21T12:58:56;3.17;;;2.03;;
64052;SDS011;50299;49.524;8.536;2024-02-21T13:01:23;1.70;;;1.45;;
64052;SDS011;50299;49.524;8.536;2024-02-21T13:03:49;2.42;;;2.20;;
64052;SDS011;50299;49.524;8.536;2024-02-21T13:06:16;2.33;;;2.22;;
64052;SDS011;50299;49.524;8.536;2024-02-21T13:08:42;4.25;;;2.05;;
64052;SDS011;50299;49.524;8.536;2024-02-21T13:11:17;3.90;;;1.48;;
64052;SDS011;50299;49.524;8.536;2024-02-21T13:13:44;3.83;;;2.38;;
64052;SDS011;50299;49.524;8.536;2024-02-21T13:16:11;1.95;;;1.85;;
64052;SDS011;50299;49.524;8.536;2024-02-21T13:18:38;3.22;;;2.40;;
64052;SDS011;50299;49.524;8.536;2024-02-21T13:21:05;4.72;;;1.73;;
64052;SDS011;50299;49.524;8.536;2024-02-21T13:23:32;4.00;;;2.70;;
64052;SDS011;50299;49.524;8.536;2024-02-21T13:25:59;4.10;;;1.58;;
64052;SDS011;50299;49.524;8.536;2024-02-21T13:28:26;2.03;;;1.20;;
64052;SDS011;50299;49.524;8.536;2024-02-21T13:30:53;3.70;;;2.28;;
64052;SDS011;50299;49.524;8.536;2024-02-21T13:33:22;2.13;;;1.58;;
64052;SDS011;50299;49.524;8.536;2024-02-21T13:35:48;3.92;;;2.10;;
64052;SDS011;50299;49.524;8.536;2024-02-21T13:38:15;5.78;;;2.03;;
64052;SDS011;50299;49.524;8.536;2024-02-21T13:40:41;3.47;;;1.42;;
64052;SDS011;50299;49.524;8.536;2024-02-21T13:43:08;2.97;;;2.47;;
64052;SDS011;50299;49.524;8.536;2024-02-21T13:45:37;2.08;;;1.88;;
64052;SDS011;50299;49.524;8.536;2024-02-21T13:48:03;4.25;;;2.03;;
64052;SDS011;50299;49.524;8.536;2024-02-21T13:50:32;3.72;;;2.38;;
64052;SDS011;50299;49.524;8.536;2024-02-21T13:53:00;2.47;;;2.25;;
64052;SDS011;50299;49.524;8.536;2024-02-21T13:55:28;2.58;;;1.15;;
64052;SDS011;50299;49.524;8.536;2024-02-21T13:57:54;2.22;;;2.13;;
64052;SDS011;50299;49.524;8.536;2024-02-21T14:00:20;2.75;;;2.38;;
64052;SDS011;50299;49.524;8.536;2024-02-21T14:02:47;2.75;;;1.35;;
64052;SDS011;50299;49.524;8.536;2024-02-21T14:05:13;2.88;;;2.35;;
64052;SDS011;50299;49.524;8.536;2024-02-21T14:07:40;3.65;;;2.60;;
64052;SDS011;50299;49.524;8.536;2024-02-21T14:10:08;5.90;;;2.10;;
64052;SDS011;50299;49.524;8.536;2024-02-21T14:12:36;2.88;;;2.20;;
64052;SDS011;50299;49.524;8.536;2024-02-21T14:15:04;4.90;;;2.13;;
64052;SDS011;50299;49.524;8.536;2024-02-21T14:17:31;4.30;;;1.73;;
64052;SDS011;50299;49.524;8.536;2024-02-21T14:19:57;2.60;;;2.00;;
64052;SDS011;50299;49.524;8.536;2024-02-21T14:22:24;4.07;;;2.33;;
64052;SDS011;50299;49.524;8.536;2024-02-21T14:24:50;2.80;;;2.05;;
64052;SDS011;50299;49.524;8.536;2024-02-21T14:27:17;3.97;;;2.17;;
64052;SDS011;50299;49.524;8.536;2024-02-21T14:29:43;3.70;;;1.80;;
64052;SDS011;50299;49.524;8.536;2024-02-21T14:32:10;2.40;;;2.20;;
64052;SDS011;50299;49.524;8.536;2024-02-21T14:34:41;3.35;;;1.85;;
64052;SDS011;50299;49.524;8.536;2024-02-21T14:37:08;4.85;;;2.63;;
64052;SDS011;50299;49.524;8.536;2024-02-21T14:39:34;2.55;;;2.35;;
64052;SDS011;50299;49.524;8.536;2024-02-21T14:42:01;3.03;;;2.20;;
64052;SDS011;50299;49.524;8.536;2024-02-21T14:44:29;2.50;;;2.17;;
64052;SDS011;50299;49.524;8.536;2024-02-21T14:46:55;5.28;;;2.47;;
64052;SDS011;50299;49.524;8.536;2024-02-21T14:49:22;2.95;;;1.58;;
64052;SDS011;50299;49.524;8.536;2024-02-21T14:51:49;3.05;;;2.55;;
64052;SDS011;50299;49.524;8.536;2024-02-21T14:54:15;7.10;;;2.22;;
64052;SDS011;50299;49.524;8.536;2024-02-21T14:56:42;2.67;;;2.45;;
64052;SDS011;50299;49.524;8.536;2024-02-21T14:59:09;5.28;;;2.00;;
64052;SDS011;50299;49.524;8.536;2024-02-21T15:01:46;2.58;;;2.38;;